Time;durP1;ratioP1;P1;durP2;ratioP2;P2;SDS_P1;SDS_P2;PMS_P1;PMS_P2;Temp;Humidity;BMP_temperature;BMP_pressure;BME280_temperature;BME280_humidity;BME280_pressure;Samples;Min_cycle;Max_cycle;Signal;HPM_P1;HPM_P2
2022/07/31 00:00:09;;;;;;;8.93;3.90;;;;;;;16.52;100.00;96960.88;5025418;28;20033;-67
2022/07/31 00:02:35;;;;;;;6.50;4.05;;;;;;;16.57;100.00;96977.06;5030722;28;20030;-66
2022/07/31 00:05:02;;;;;;;6.07;3.67;;;;;;;16.60;100.00;96962.44;5030863;28;20033;-64
2022/07/31 00:07:28;;;;;;;4.70;3.38;;;;;;;16.58;100.00;96962.06;5029792;28;20029;-67
2022/07/31 00:09:54;;;;;;;6.53;3.92;;;;;;;16.63;100.00;96956.09;5030150;28;20088;-67
2022/07/31 00:12:20;;;;;;;10.07;4.18;;;;;;;16.46;100.00;96964.44;5029352;28;20044;-67
2022/07/31 00:14:46;;;;;;;5.90;3.55;;;;;;;16.27;100.00;96965.69;5030543;28;20119;-67
2022/07/31 00:17:12;;;;;;;6.90;3.70;;;;;;;16.32;100.00;96959.75;5029942;28;20041;-67
2022/07/31 00:19:38;;;;;;;10.50;4.18;;;;;;;16.43;100.00;96952.22;5008635;28;20293;-67
2022/07/31 00:22:04;;;;;;;7.78;3.88;;;;;;;16.48;100.00;96951.03;5034333;28;20112;-67
2022/07/31 00:24:29;;;;;;;5.90;3.70;;;;;;;16.46;100.00;96943.13;5016547;28;20025;-67
2022/07/31 00:26:55;;;;;;;9.70;4.20;;;;;;;16.46;100.00;96947.84;5033988;28;20083;-66
2022/07/31 00:29:20;;;;;;;5.03;3.58;;;;;;;16.53;100.00;96953.34;5027976;28;20098;-67
2022/07/31 00:31:46;;;;;;;7.22;3.70;;;;;;;16.42;100.00;96948.66;5032183;28;20518;-65
2022/07/31 00:34:11;;;;;;;6.90;3.50;;;;;;;16.47;100.00;96952.19;5018319;28;20033;-66
2022/07/31 00:36:37;;;;;;;8.25;3.65;;;;;;;16.47;100.00;96950.22;5033487;28;20036;-66
2022/07/31 00:39:02;;;;;;;6.07;3.45;;;;;;;16.47;100.00;96949.44;5033198;28;20025;-66
2022/07/31 00:41:39;;;;;;;8.05;3.83;;;;;;;16.51;100.00;96958.50;5034144;28;20057;-65
2022/07/31 00:44:04;;;;;;;5.53;3.53;;;;;;;16.59;100.00;96957.31;5034540;28;20025;-66
2022/07/31 00:46:30;;;;;;;6.47;3.83;;;;;;;16.55;100.00;96959.28;5046209;28;20032;-66
2022/07/31 00:48:55;;;;;;;7.13;3.90;;;;;;;16.42;100.00;96953.38;5056936;28;20044;-66
2022/07/31 00:51:21;;;;;;;5.45;4.10;;;;;;;16.16;100.00;96947.13;5037679;28;20036;-65
2022/07/31 00:53:46;;;;;;;11.20;4.32;;;;;;;15.89;100.00;96962.56;5034349;28;20091;-67
2022/07/31 00:56:11;;;;;;;8.20;4.00;;;;;;;15.87;100.00;96954.66;5035074;28;20030;-65
2022/07/31 00:58:37;;;;;;;5.88;3.83;;;;;;;15.82;100.00;96957.81;5035468;28;20379;-65
2022/07/31 01:01:02;;;;;;;9.30;4.18;;;;;;;15.81;100.00;96956.22;5035406;28;20068;-67
2022/07/31 01:03:27;;;;;;;7.30;4.00;;;;;;;15.86;100.00;96955.84;5035362;28;20037;-65
2022/07/31 01:05:53;;;;;;;9.98;3.88;;;;;;;15.95;100.00;96952.69;5034155;28;20040;-70
2022/07/31 01:08:18;;;;;;;7.35;4.13;;;;;;;16.02;100.00;96945.16;5061818;28;20490;-68
2022/07/31 01:11:10;;;;;;;8.88;3.92;;;;;;;15.97;100.00;96942.84;5056230;28;20068;-67
2022/07/31 01:13:58;;;;;;;5.60;4.30;;;;;;;15.80;100.00;96938.88;5046480;28;20066;-65
2022/07/31 01:16:29;;;;;;;6.63;4.20;;;;;;;15.73;100.00;96932.53;5045294;28;20034;-67
2022/07/31 01:18:57;;;;;;;8.95;4.10;;;;;;;15.64;100.00;96939.25;5057115;28;20017;-69
2022/07/31 01:21:31;;;;;;;7.07;4.75;;;;;;;15.92;100.00;96934.94;5037713;28;20034;-65
2022/07/31 01:24:10;;;;;;;6.10;3.80;;;;;;;16.04;100.00;96937.28;5015782;28;20621;-67
2022/07/31 01:26:59;;;;;;;7.50;4.20;;;;;;;16.00;100.00;96930.97;5018467;28;20045;-67
2022/07/31 01:29:34;;;;;;;7.88;4.60;;;;;;;16.00;100.00;96928.19;5042621;28;20034;-67
2022/07/31 01:32:08;;;;;;;5.30;4.15;;;;;;;16.06;100.00;96931.34;5031843;28;20045;-67
2022/07/31 01:34:48;;;;;;;6.68;4.50;;;;;;;16.13;100.00;96941.59;5033449;28;20057;-67
2022/07/31 01:37:20;;;;;;;7.93;4.05;;;;;;;16.06;100.00;96942.41;5031983;28;20108;-68
2022/07/31 01:39:51;;;;;;;8.20;4.65;;;;;;;15.81;100.00;96947.94;5033058;28;20033;-67
2022/07/31 01:42:19;;;;;;;11.20;4.25;;;;;;;15.66;100.00;96939.66;5032831;28;20029;-66
2022/07/31 01:44:51;;;;;;;7.53;5.00;;;;;;;15.39;100.00;96938.44;5032900;28;20037;-67
2022/07/31 01:47:20;;;;;;;9.88;5.30;;;;;;;15.28;100.00;96944.72;5031771;28;20037;-66
2022/07/31 01:49:49;;;;;;;5.70;5.00;;;;;;;15.19;100.00;96940.78;5032722;28;20056;-68
2022/07/31 01:52:15;;;;;;;7.35;4.88;;;;;;;15.23;100.00;96936.84;5031726;28;20043;-68
2022/07/31 01:54:43;;;;;;;7.38;4.50;;;;;;;15.45;100.00;96942.41;5032595;28;20045;-68
2022/07/31 01:57:09;;;;;;;5.72;4.18;;;;;;;15.56;100.00;96945.97;5022353;28;20579;-67
2022/07/31 01:59:37;;;;;;;7.22;4.40;;;;;;;15.53;100.00;96945.97;5032681;28;20036;-67
2022/07/31 02:02:03;;;;;;;9.40;4.13;;;;;;;15.60;100.00;96955.03;4996055;28;20124;-67
2022/07/31 02:04:31;;;;;;;6.55;4.18;;;;;;;15.82;100.00;96953.06;5016612;28;20106;-67
2022/07/31 02:07:00;;;;;;;8.88;4.32;;;;;;;16.15;100.00;96955.81;5022374;28;20041;-67
2022/07/31 02:09:27;;;;;;;4.55;3.67;;;;;;;16.41;100.00;96960.91;5032368;28;20033;-67
2022/07/31 02:11:53;;;;;;;5.20;3.88;;;;;;;16.49;100.00;96955.34;5032424;28;20040;-67
2022/07/31 02:14:20;;;;;;;7.30;4.43;;;;;;;16.39;100.00;96954.97;5031307;28;20033;-67
2022/07/31 02:16:47;;;;;;;11.13;4.32;;;;;;;16.16;100.00;96960.94;5031391;28;20109;-67
2022/07/31 02:19:13;;;;;;;7.88;4.07;;;;;;;15.91;100.00;96952.69;5032732;28;20037;-66
2022/07/31 02:21:40;;;;;;;7.93;4.10;;;;;;;15.84;100.00;96959.00;5032187;28;20108;-67
2022/07/31 02:24:06;;;;;;;5.10;4.00;;;;;;;15.96;100.00;96960.56;5031311;28;20029;-66
2022/07/31 02:26:33;;;;;;;6.45;3.72;;;;;;;16.11;100.00;96961.34;5038808;28;20030;-68
2022/07/31 02:29:01;;;;;;;5.60;4.10;;;;;;;16.27;100.00;96962.91;5033771;28;20025;-67
2022/07/31 02:31:30;;;;;;;8.10;4.18;;;;;;;16.35;100.00;96953.41;5030521;28;20044;-67
2022/07/31 02:33:55;;;;;;;9.93;3.63;;;;;;;16.48;100.00;96957.34;5032360;28;20025;-67
2022/07/31 02:36:22;;;;;;;6.85;4.10;;;;;;;16.04;100.00;96959.41;5042869;28;20374;-67
2022/07/31 02:38:50;;;;;;;5.80;4.28;;;;;;;15.80;100.00;96960.19;5040384;28;20131;-66
2022/07/31 02:41:17;;;;;;;9.30;4.57;;;;;;;15.49;100.00;96955.00;5032298;28;20104;-66
2022/07/31 02:43:44;;;;;;;10.32;5.40;;;;;;;15.25;100.00;96955.75;5021705;28;20040;-69
2022/07/31 02:46:11;;;;;;;12.10;5.10;;;;;;;15.12;100.00;96949.03;5042515;28;20025;-67
2022/07/31 02:48:38;;;;;;;6.18;4.82;;;;;;;15.08;100.00;96944.28;5031805;28;20108;-69
2022/07/31 02:51:04;;;;;;;10.40;4.60;;;;;;;15.24;100.00;96943.94;5028768;28;20033;-68
2022/07/31 02:53:31;;;;;;;8.45;4.50;;;;;;;15.48;100.00;96949.88;5031830;28;20420;-69
2022/07/31 02:55:57;;;;;;;8.93;5.03;;;;;;;15.68;100.00;96951.09;5031028;28;20124;-69
2022/07/31 02:58:23;;;;;;;8.77;4.10;;;;;;;15.90;100.00;96956.66;5031566;28;20061;-68
2022/07/31 03:01:01;;;;;;;5.88;3.67;;;;;;;16.10;100.00;96953.44;5030319;28;20834;-68
2022/07/31 03:03:27;;;;;;;10.27;4.22;;;;;;;16.04;100.00;96951.09;5021957;28;20033;-69
2022/07/31 03:05:52;;;;;;;7.25;4.22;;;;;;;15.78;100.00;96949.53;5029865;28;20382;-69
2022/07/31 03:08:17;;;;;;;7.55;4.50;;;;;;;15.74;100.00;96954.28;5021919;28;20037;-69
2022/07/31 03:10:43;;;;;;;7.82;4.72;;;;;;;15.66;100.00;96950.72;5029087;28;20359;-69
2022/07/31 03:13:10;;;;;;;7.43;4.20;;;;;;;15.78;100.00;96952.28;5026993;28;20052;-67
2022/07/31 03:15:38;;;;;;;11.27;4.57;;;;;;;16.01;100.00;96948.34;5030916;28;20029;-69
2022/07/31 03:18:05;;;;;;;9.77;4.38;;;;;;;16.10;100.00;96953.44;5030137;28;20079;-67
2022/07/31 03:20:31;;;;;;;8.75;4.57;;;;;;;16.14;100.00;96951.50;5030937;28;20556;-69
2022/07/31 03:22:59;;;;;;;8.60;4.43;;;;;;;16.11;100.00;96955.81;5031187;28;20040;-68
2022/07/31 03:25:25;;;;;;;4.88;3.38;;;;;;;16.13;100.00;96952.66;5030179;28;20475;-68
2022/07/31 03:27:51;;;;;;;7.07;4.35;;;;;;;16.03;100.00;96960.56;5024800;28;20045;-68
2022/07/31 03:30:18;;;;;;;9.18;3.95;;;;;;;16.03;100.00;96960.56;5030869;28;20039;-68
2022/07/31 03:32:44;;;;;;;6.05;4.32;;;;;;;16.10;100.00;96957.03;5028939;28;20036;-67
2022/07/31 03:35:09;;;;;;;7.55;3.80;;;;;;;16.22;100.00;96958.56;5030831;28;20029;-67
2022/07/31 03:37:35;;;;;;;6.30;4.00;;;;;;;16.29;100.00;96961.31;5031509;28;20030;-68
2022/07/31 03:40:00;;;;;;;5.15;4.25;;;;;;;16.33;100.00;96966.84;5035159;28;20036;-69
2022/07/31 03:42:27;;;;;;;6.00;3.88;;;;;;;16.41;100.00;96963.66;5032520;28;20393;-67
2022/07/31 03:44:53;;;;;;;5.13;3.72;;;;;;;16.56;100.00;96963.63;5027868;28;20041;-69
2022/07/31 03:47:20;;;;;;;9.52;4.30;;;;;;;16.63;100.00;96960.84;5032850;28;20033;-67
2022/07/31 03:49:47;;;;;;;7.20;3.72;;;;;;;16.74;100.00;96958.81;5031156;28;20045;-68
2022/07/31 03:52:12;;;;;;;5.22;3.72;;;;;;;16.52;100.00;96954.56;5036684;28;20037;-68
2022/07/31 03:54:38;;;;;;;8.35;4.38;;;;;;;16.36;100.00;96955.78;5027804;28;20029;-68
2022/07/31 03:57:06;;;;;;;4.45;3.67;;;;;;;16.44;100.00;96957.34;5048150;28;20086;-68
2022/07/31 03:59:33;;;;;;;7.10;4.22;;;;;;;16.57;100.00;96960.47;5038813;28;20030;-67
2022/07/31 04:02:00;;;;;;;7.45;4.40;;;;;;;16.62;100.00;96959.28;5049897;28;20057;-68
2022/07/31 04:04:25;;;;;;;6.95;4.70;;;;;;;16.31;100.00;96956.16;5034105;28;20521;-68
2022/07/31 04:06:51;;;;;;;8.93;4.88;;;;;;;16.13;100.00;96956.19;5034416;28;20037;-68
2022/07/31 04:09:16;;;;;;;9.02;4.60;;;;;;;15.89;100.00;96968.09;5034929;28;20116;-69
2022/07/31 04:11:42;;;;;;;6.95;4.90;;;;;;;16.05;100.00;96968.47;5020488;28;20033;-69
2022/07/31 04:14:08;;;;;;;7.10;4.85;;;;;;;16.03;100.00;96960.56;5018073;28;20033;-70
2022/07/31 04:16:33;;;;;;;8.55;4.30;;;;;;;15.99;100.00;96957.03;5035534;28;20037;-70
2022/07/31 04:18:58;;;;;;;8.40;5.00;;;;;;;15.89;100.00;96957.81;5033881;28;20036;-69
2022/07/31 04:21:24;;;;;;;8.43;5.25;;;;;;;15.52;100.00;96958.97;5017171;28;20090;-69
2022/07/31 04:23:50;;;;;;;6.55;5.15;;;;;;;15.54;100.00;96958.56;5034613;28;20068;-69
2022/07/31 04:26:15;;;;;;;10.13;5.72;;;;;;;15.57;100.00;96955.81;5032795;28;20502;-69
2022/07/31 04:28:40;;;;;;;9.05;5.53;;;;;;;15.60;100.00;96960.53;5033530;28;20401;-68
2022/07/31 04:31:06;;;;;;;7.85;5.10;;;;;;;15.57;100.00;96966.06;5033901;28;20048;-68
2022/07/31 04:33:31;;;;;;;12.40;4.95;;;;;;;15.73;100.00;96972.00;5031551;28;20025;-68
2022/07/31 04:35:56;;;;;;;7.47;4.43;;;;;;;16.03;100.00;96962.56;5033148;28;20486;-68
2022/07/31 04:38:22;;;;;;;7.82;4.88;;;;;;;16.03;100.00;96966.09;5034007;28;20076;-69
2022/07/31 04:40:48;;;;;;;7.80;4.35;;;;;;;16.31;100.00;96963.69;5031615;28;20049;-68
2022/07/31 04:43:15;;;;;;;6.20;4.10;;;;;;;16.56;100.00;96981.00;5033829;28;20101;-67
2022/07/31 04:45:41;;;;;;;5.35;4.10;;;;;;;16.87;100.00;96969.47;5032687;28;20641;-67
2022/07/31 04:48:07;;;;;;;7.85;3.78;;;;;;;17.13;100.00;96973.72;5033989;28;20029;-68
2022/07/31 04:50:33;;;;;;;7.05;4.57;;;;;;;17.37;100.00;96966.44;5053849;28;20029;-66
2022/07/31 04:52:58;;;;;;;4.68;3.58;;;;;;;17.53;100.00;96972.25;5049841;28;20037;-67
2022/07/31 04:55:23;;;;;;;4.80;3.65;;;;;;;17.65;100.00;96971.00;5016997;28;20037;-67
2022/07/31 04:57:49;;;;;;;5.53;3.70;;;;;;;17.86;100.00;96977.59;5034012;28;20568;-68
2022/07/31 05:00:14;;;;;;;5.38;3.83;;;;;;;17.99;100.00;96981.47;5016717;28;20032;-69
2022/07/31 05:02:40;;;;;;;6.03;3.70;;;;;;;18.13;100.00;96983.31;5033305;28;20037;-68
2022/07/31 05:05:06;;;;;;;7.07;3.95;;;;;;;18.21;100.00;96982.06;5031975;28;20112;-68
2022/07/31 05:07:31;;;;;;;6.68;3.40;;;;;;;18.25;100.00;96984.78;5032687;28;20057;-68
2022/07/31 05:09:57;;;;;;;10.40;3.75;;;;;;;18.34;100.00;96979.53;5033913;28;20398;-68
2022/07/31 05:12:23;;;;;;;7.60;3.33;;;;;;;18.33;100.00;96983.53;5033601;28;20026;-69
2022/07/31 05:14:48;;;;;;;5.35;3.17;;;;;;;18.48;100.00;96979.41;5040875;28;20037;-69
2022/07/31 05:17:14;;;;;;;7.95;3.63;;;;;;;18.58;100.00;96974.16;5045826;28;20096;-68
2022/07/31 05:19:39;;;;;;;7.40;3.75;;;;;;;18.30;100.00;96964.94;5025739;28;20028;-69
2022/07/31 05:22:04;;;;;;;8.63;3.97;;;;;;;17.63;100.00;96973.41;5018786;28;20030;-69
2022/07/31 05:24:30;;;;;;;7.47;4.82;;;;;;;17.39;100.00;96967.63;5034971;28;20498;-69
2022/07/31 05:26:55;;;;;;;8.05;4.10;;;;;;;18.00;100.00;96974.72;5032589;28;20274;-67
2022/07/31 05:29:21;;;;;;;6.25;3.42;;;;;;;20.21;100.00;96965.97;5024581;28;20113;-68
2022/07/31 05:31:46;;;;;;;6.25;3.03;;;;;;;22.25;96.84;96968.38;5033479;28;20033;-68
2022/07/31 05:34:11;;;;;;;9.23;2.83;;;;;;;22.22;92.49;96964.47;5041562;28;20029;-68
2022/07/31 05:36:37;;;;;;;4.30;3.13;;;;;;;22.12;92.41;96966.31;5050683;28;20108;-68
2022/07/31 05:39:03;;;;;;;6.50;3.00;;;;;;;22.60;89.72;96969.50;5050190;28;20042;-67
2022/07/31 05:41:29;;;;;;;4.97;2.70;;;;;;;24.43;83.89;96966.72;5039589;28;20052;-67
2022/07/31 05:43:55;;;;;;;3.33;2.17;;;;;;;26.05;72.42;96969.09;5037349;28;20532;-69
2022/07/31 05:46:20;;;;;;;3.70;2.30;;;;;;;26.54;71.44;96977.91;5040877;28;20026;-67
2022/07/31 05:48:46;;;;;;;6.68;2.33;;;;;;;27.69;64.54;96981.22;5025195;28;20036;-67
2022/07/31 05:51:12;;;;;;;3.83;2.10;;;;;;;28.17;61.53;96976.47;5030171;28;20029;-69
2022/07/31 05:53:39;;;;;;;4.07;1.80;;;;;;;27.45;61.85;96985.53;5032510;28;20029;-69
2022/07/31 05:56:05;;;;;;;7.70;2.50;;;;;;;25.44;70.12;96982.72;5032379;28;20104;-69
2022/07/31 05:58:31;;;;;;;5.10;1.90;;;;;;;26.90;67.19;96985.59;5032475;28;20104;-68
2022/07/31 06:00:56;;;;;;;7.85;2.58;;;;;;;27.90;61.91;96982.25;5028722;28;20029;-69
2022/07/31 06:03:23;;;;;;;3.88;2.40;;;;;;;27.00;67.21;96989.97;5027696;28;20036;-68
2022/07/31 06:05:49;;;;;;;7.32;2.10;;;;;;;29.33;57.15;96991.09;5028793;28;20103;-69
2022/07/31 06:08:15;;;;;;;4.45;2.03;;;;;;;30.97;50.02;96999.16;5033114;28;20381;-68
2022/07/31 06:10:41;;;;;;;4.80;1.90;;;;;;;29.78;49.55;97000.34;4995008;28;20034;-68
2022/07/31 06:13:06;;;;;;;5.32;2.10;;;;;;;28.32;55.30;96993.44;5022805;28;20398;-68
2022/07/31 06:15:32;;;;;;;7.93;2.47;;;;;;;28.44;55.34;96996.50;5031244;28;20025;-68
2022/07/31 06:17:58;;;;;;;4.45;1.95;;;;;;;28.74;54.80;96998.19;5022581;28;20068;-68
2022/07/31 06:20:23;;;;;;;4.80;1.83;;;;;;;30.06;50.72;96997.94;5032204;28;20556;-68
2022/07/31 06:22:49;;;;;;;5.00;1.95;;;;;;;29.58;52.00;97006.66;5031322;28;20037;-68
2022/07/31 06:25:15;;;;;;;4.38;1.92;;;;;;;29.02;52.09;97000.78;5031005;28;20033;-67
2022/07/31 06:27:41;;;;;;;5.70;2.08;;;;;;;28.68;54.21;97005.75;5023658;28;20036;-68
2022/07/31 06:30:07;;;;;;;5.72;2.03;;;;;;;28.52;54.93;96998.50;5032017;28;20045;-67
2022/07/31 06:32:33;;;;;;;5.28;2.38;;;;;;;27.83;57.20;97011.50;5032226;28;20025;-67
2022/07/31 06:34:59;;;;;;;9.20;2.67;;;;;;;26.87;60.46;97009.81;5022315;28;20090;-67
2022/07/31 06:37:24;;;;;;;3.45;2.10;;;;;;;26.22;63.72;97010.97;5042951;28;20053;-67
2022/07/31 06:39:50;;;;;;;6.82;2.65;;;;;;;25.62;66.56;97000.88;5048297;28;20034;-67
2022/07/31 06:42:20;;;;;;;6.28;2.65;;;;;;;25.20;68.68;97002.03;5047260;28;20057;-67
2022/07/31 06:44:46;;;;;;;7.82;2.85;;;;;;;25.48;67.26;97003.00;5035637;28;20076;-68
2022/07/31 06:47:11;;;;;;;5.32;2.58;;;;;;;26.11;64.74;97002.97;5034044;28;20065;-67
2022/07/31 06:49:36;;;;;;;7.90;2.20;;;;;;;27.43;57.58;97004.13;5035197;28;20565;-67
2022/07/31 06:52:02;;;;;;;5.90;2.53;;;;;;;28.11;55.43;96994.50;5016594;28;20070;-67
2022/07/31 06:54:27;;;;;;;3.85;2.15;;;;;;;28.73;52.51;97004.31;5033858;28;20064;-67
2022/07/31 06:56:53;;;;;;;4.95;2.05;;;;;;;30.03;46.96;97007.41;5032349;28;20029;-67
2022/07/31 06:59:18;;;;;;;7.47;2.47;;;;;;;31.01;43.20;97008.22;5033353;28;20056;-67
2022/07/31 07:01:43;;;;;;;4.60;1.90;;;;;;;31.15;42.33;97007.34;5031205;28;20118;-67
2022/07/31 07:04:09;;;;;;;4.65;1.50;;;;;;;32.12;39.92;97004.06;5029271;28;20025;-68
2022/07/31 07:06:34;;;;;;;4.63;2.50;;;;;;;32.70;39.12;97015.25;5026748;28;20037;-68
2022/07/31 07:08:59;;;;;;;4.88;2.03;;;;;;;32.20;38.75;97012.91;5029918;28;20030;-68
2022/07/31 07:11:25;;;;;;;5.88;1.95;;;;;;;32.94;38.34;97011.22;5019251;28;20056;-68
2022/07/31 07:13:50;;;;;;;6.03;1.90;;;;;;;31.56;40.86;97018.53;5027890;28;20034;-67
2022/07/31 07:16:16;;;;;;;3.40;1.83;;;;;;;31.98;40.37;97008.59;5016918;28;20557;-68
2022/07/31 07:18:42;;;;;;;4.53;2.10;;;;;;;30.82;42.57;97014.13;5023444;28;20036;-67
2022/07/31 07:21:07;;;;;;;2.63;1.65;;;;;;;29.92;45.00;97007.22;5027246;28;20034;-68
2022/07/31 07:23:33;;;;;;;4.88;1.50;;;;;;;30.28;44.69;97008.78;5032279;28;20025;-66
2022/07/31 07:25:58;;;;;;;4.18;1.75;;;;;;;29.82;45.63;97009.41;5030203;28;20029;-67
2022/07/31 07:28:24;;;;;;;2.83;1.80;;;;;;;30.08;45.58;97008.75;5021512;28;20040;-68
2022/07/31 07:30:49;;;;;;;5.43;2.15;;;;;;;30.73;43.76;97007.84;5030563;28;20042;-67
2022/07/31 07:33:15;;;;;;;5.18;2.10;;;;;;;30.88;43.45;97005.72;5030171;28;20509;-67
2022/07/31 07:35:40;;;;;;;5.30;2.20;;;;;;;29.67;44.80;97011.41;5033021;28;20026;-67
2022/07/31 07:38:06;;;;;;;3.88;2.10;;;;;;;31.44;42.08;97005.56;5030434;28;20060;-68
2022/07/31 07:40:32;;;;;;;6.35;2.10;;;;;;;31.28;42.93;97001.28;5031027;28;20029;-68
2022/07/31 07:42:57;;;;;;;7.78;1.88;;;;;;;32.06;41.09;96999.66;5029606;28;20076;-67
2022/07/31 07:45:23;;;;;;;4.82;1.70;;;;;;;33.70;37.46;96998.97;5030768;28;20030;-68
2022/07/31 07:47:49;;;;;;;3.30;1.55;;;;;;;33.07;37.63;96993.69;5030261;28;20047;-68
2022/07/31 07:50:14;;;;;;;4.82;2.00;;;;;;;33.71;37.40;96989.19;5021447;28;20029;-68
2022/07/31 07:52:40;;;;;;;4.90;2.30;;;;;;;31.62;41.03;96993.91;5033919;28;20037;-68
2022/07/31 07:55:07;;;;;;;6.07;1.80;;;;;;;32.90;38.79;96991.59;5031460;28;20045;-67
2022/07/31 07:57:34;;;;;;;4.22;1.80;;;;;;;32.56;39.33;96991.44;5029101;28;20421;-67
2022/07/31 08:00:04;;;;;;;3.78;1.92;;;;;;;33.05;38.41;96999.13;5030900;28;20509;-68
2022/07/31 08:02:31;;;;;;;5.28;2.15;;;;;;;31.89;40.38;96988.19;5030662;28;20120;-67
2022/07/31 08:04:56;;;;;;;5.82;1.90;;;;;;;31.98;41.42;96985.94;5018845;28;20469;-67
2022/07/31 08:07:34;;;;;;;4.10;2.00;;;;;;;30.80;41.99;96985.56;5011421;28;20061;-67
2022/07/31 08:10:00;;;;;;;2.88;1.70;;;;;;;30.56;42.14;96991.47;5026761;28;20034;-67
2022/07/31 08:12:26;;;;;;;5.97;1.88;;;;;;;29.79;43.43;96973.69;5016142;28;20087;-67
2022/07/31 08:14:52;;;;;;;6.75;1.95;;;;;;;29.81;43.76;96988.06;5013718;28;20540;-67
2022/07/31 08:17:17;;;;;;;4.60;1.70;;;;;;;29.74;44.38;96974.34;5031994;28;20041;-67
2022/07/31 08:19:43;;;;;;;4.97;1.98;;;;;;;29.99;42.76;96975.00;5030522;28;20037;-67
2022/07/31 08:22:09;;;;;;;4.57;1.67;;;;;;;29.16;43.48;96980.28;5032149;28;20025;-67
2022/07/31 08:24:34;;;;;;;7.40;1.65;;;;;;;28.98;43.06;96969.94;5031292;28;20033;-68
2022/07/31 08:29:44;;;;;;;3.88;1.70;;;;;;;29.84;39.81;96975.03;5024092;28;20508;-67
2022/07/31 08:32:10;;;;;;;5.85;2.05;;;;;;;30.27;39.59;96981.81;5031039;28;20085;-67
2022/07/31 08:34:36;;;;;;;4.47;2.00;;;;;;;29.99;39.57;96980.66;5031719;28;20466;-67
2022/07/31 08:37:03;;;;;;;4.60;1.65;;;;;;;30.31;39.48;96982.38;5030950;28;20084;-67
2022/07/31 08:39:28;;;;;;;4.03;1.60;;;;;;;30.67;39.11;96977.47;5031852;28;20030;-67
2022/07/31 08:41:54;;;;;;;13.77;9.70;;;;;;;30.90;38.01;96972.09;5033249;28;20033;-67
2022/07/31 08:44:19;;;;;;;6.13;1.55;;;;;;;31.51;37.38;96976.03;5034619;28;20374;-66
2022/07/31 08:46:45;;;;;;;2.38;1.10;;;;;;;31.87;36.09;96974.50;5050636;28;20037;-66
2022/07/31 08:49:14;;;;;;;7.13;1.40;;;;;;;32.90;33.48;96983.09;5050143;28;20101;-66
2022/07/31 08:51:41;;;;;;;1.90;0.82;;;;;;;33.02;32.19;96980.28;5034099;28;20115;-66
2022/07/31 08:54:09;;;;;;;5.20;1.40;;;;;;;32.35;33.98;96976.63;5032030;28;20041;-66
2022/07/31 08:56:39;;;;;;;6.05;1.67;;;;;;;32.57;31.19;96978.03;5032526;28;20031;-68
2022/07/31 08:59:05;;;;;;;8.02;1.30;;;;;;;33.87;29.04;96969.78;5033969;28;20038;-68
2022/07/31 09:01:35;;;;;;;4.05;1.50;;;;;;;34.35;28.25;96980.06;5033594;28;20435;-68
2022/07/31 09:04:02;;;;;;;3.20;1.10;;;;;;;34.20;28.80;96971.06;5031382;28;20030;-69
2022/07/31 09:06:27;;;;;;;4.75;0.95;;;;;;;34.88;28.43;96971.63;5033370;28;20033;-68
2022/07/31 09:08:54;;;;;;;1.73;0.90;;;;;;;34.26;28.81;96972.59;5047195;28;20021;-68
2022/07/31 09:11:21;;;;;;;3.28;1.10;;;;;;;32.36;32.47;96966.88;5046683;28;20027;-68
2022/07/31 09:13:54;;;;;;;4.05;1.10;;;;;;;34.22;30.15;96968.47;5029004;28;20064;-69
2022/07/31 09:16:20;;;;;;;2.97;1.15;;;;;;;34.51;29.62;96974.84;5049253;28;20043;-68
2022/07/31 09:19:02;;;;;;;4.47;2.30;;;;;;;33.76;29.62;96978.34;5039940;28;20029;-67
2022/07/31 09:21:42;;;;;;;7.50;1.05;;;;;;;34.34;28.39;96972.06;5037043;28;20029;-68
2022/07/31 09:24:09;;;;;;;3.67;0.93;;;;;;;35.19;27.20;96973.25;5045786;28;20041;-68
2022/07/31 09:26:35;;;;;;;2.85;1.25;;;;;;;34.05;28.76;96969.25;5032390;28;20041;-68
2022/07/31 09:29:07;;;;;;;2.08;1.13;;;;;;;33.29;30.19;96965.38;5023849;28;20064;-67
2022/07/31 09:31:34;;;;;;;4.40;1.75;;;;;;;33.38;32.04;96961.53;5033108;28;20029;-68
2022/07/31 09:34:00;;;;;;;2.53;1.17;;;;;;;33.53;30.78;96964.13;5030134;28;20109;-66
2022/07/31 09:36:26;;;;;;;2.97;1.27;;;;;;;33.00;30.35;96968.66;5018552;28;20529;-67
2022/07/31 09:38:52;;;;;;;2.55;1.30;;;;;;;32.03;33.32;96963.81;5033816;28;20030;-67
2022/07/31 09:41:20;;;;;;;4.22;1.52;;;;;;;31.75;35.16;96958.75;5033415;28;20030;-67
2022/07/31 09:43:59;;;;;;;3.67;2.33;;;;;;;31.16;35.93;96965.69;5032003;28;20029;-68
2022/07/31 09:46:26;;;;;;;3.50;1.30;;;;;;;30.82;35.12;96959.63;5032853;28;20030;-67
2022/07/31 09:48:54;;;;;;;4.38;1.35;;;;;;;30.05;35.24;96962.53;5040953;28;20068;-67
2022/07/31 09:51:21;;;;;;;6.18;1.40;;;;;;;30.43;33.49;96966.41;5022990;28;20124;-68
2022/07/31 09:53:52;;;;;;;2.90;1.23;;;;;;;30.15;34.96;96951.84;5033923;28;20033;-67
2022/07/31 09:56:31;;;;;;;3.72;1.55;;;;;;;29.69;36.14;96956.06;5029113;28;20486;-67
2022/07/31 09:58:57;;;;;;;3.35;1.70;;;;;;;29.85;39.20;96959.63;5024873;28;20579;-66
2022/07/31 10:01:23;;;;;;;3.40;1.85;;;;;;;29.52;40.72;96955.00;5018311;28;20068;-68
2022/07/31 10:03:51;;;;;;;5.53;1.90;;;;;;;29.95;40.24;96954.66;5022968;28;20100;-68
2022/07/31 10:06:19;;;;;;;2.78;1.30;;;;;;;28.71;43.04;96954.06;5024414;28;20037;-66
2022/07/31 10:08:45;;;;;;;2.80;1.45;;;;;;;29.72;38.63;96951.47;5030221;28;20041;-69
2022/07/31 10:11:13;;;;;;;5.57;1.40;;;;;;;29.60;35.53;96958.19;5020482;28;20056;-67
2022/07/31 10:13:44;;;;;;;4.60;1.40;;;;;;;29.83;35.86;96953.72;5013459;28;20064;-68
2022/07/31 10:16:10;;;;;;;2.22;1.33;;;;;;;29.89;36.99;96965.84;5018281;28;20029;-68
2022/07/31 10:18:38;;;;;;;8.20;2.90;;;;;;;29.24;40.35;96952.47;5021956;28;20416;-67
2022/07/31 10:21:05;;;;;;;4.32;2.47;;;;;;;29.30;36.78;96949.78;5015314;28;20131;-67
2022/07/31 10:23:33;;;;;;;4.82;1.33;;;;;;;28.82;37.12;96950.69;5022860;28;20046;-66
2022/07/31 10:26:01;;;;;;;3.22;1.30;;;;;;;29.13;37.28;96944.56;5022934;28;20073;-66
2022/07/31 10:28:30;;;;;;;3.13;1.60;;;;;;;29.66;36.56;96940.09;5018766;28;20124;-68
2022/07/31 10:30:56;;;;;;;3.45;1.80;;;;;;;29.99;35.01;96944.72;5023646;28;20034;-68
2022/07/31 10:33:23;;;;;;;3.30;1.50;;;;;;;30.38;33.84;96946.50;5018364;28;20648;-68
2022/07/31 10:36:24;;;;;;;2.35;1.05;;;;;;;30.17;34.50;96931.59;5013745;28;20615;-70
2022/07/31 10:39:04;;;;;;;4.97;1.20;;;;;;;30.07;32.87;96933.75;5007569;28;20363;-68
2022/07/31 10:41:43;;;;;;;3.90;1.77;;;;;;;30.07;33.48;96931.75;5030319;28;20053;-68
2022/07/31 10:44:21;;;;;;;4.82;1.48;;;;;;;29.39;36.21;96926.31;5017007;28;20057;-68
2022/07/31 10:46:46;;;;;;;2.58;1.30;;;;;;;29.67;34.96;96918.28;5012634;28;20142;-68
2022/07/31 10:49:11;;;;;;;3.50;1.30;;;;;;;29.81;33.56;96925.19;5014377;28;20037;-68
2022/07/31 10:51:50;;;;;;;2.85;1.23;;;;;;;29.67;36.39;96921.09;5023239;28;20128;-68
2022/07/31 10:54:16;;;;;;;5.87;2.20;;;;;;;29.54;35.33;96907.31;5017497;28;20382;-70
2022/07/31 10:56:46;;;;;;;2.60;1.10;;;;;;;29.73;35.01;96902.22;5021930;28;20037;-68
2022/07/31 10:59:11;;;;;;;3.13;1.20;;;;;;;29.44;35.97;96903.84;5015334;28;20037;-68
2022/07/31 11:01:50;;;;;;;3.15;1.33;;;;;;;29.37;35.76;96898.59;5021329;28;20506;-68
2022/07/31 11:04:27;;;;;;;2.78;1.33;;;;;;;29.10;36.79;96894.00;5016126;28;20041;-68
2022/07/31 11:06:55;;;;;;;5.63;3.47;;;;;;;29.24;37.60;96900.94;5024129;28;20041;-68
2022/07/31 11:09:26;;;;;;;3.03;1.15;;;;;;;29.62;35.86;96894.38;5012683;28;20041;-68
2022/07/31 11:11:52;;;;;;;4.13;1.40;;;;;;;29.33;37.39;96892.38;5022010;28;20088;-68
2022/07/31 11:14:29;;;;;;;2.60;1.33;;;;;;;29.52;35.93;96890.09;5015121;28;20079;-68
2022/07/31 11:16:54;;;;;;;3.60;1.45;;;;;;;29.34;37.49;96891.88;5004784;28;20041;-68
2022/07/31 11:19:20;;;;;;;3.50;1.15;;;;;;;29.10;39.12;96891.97;5016549;28;20083;-68
2022/07/31 11:21:45;;;;;;;4.85;1.58;;;;;;;27.87;39.71;96879.06;5003352;28;20041;-67
2022/07/31 11:24:12;;;;;;;4.18;1.50;;;;;;;28.21;40.81;96889.00;5016164;28;20042;-67
2022/07/31 11:26:42;;;;;;;4.30;1.50;;;;;;;28.29;39.11;96878.94;5021569;28;20046;-69
2022/07/31 11:29:10;;;;;;;2.88;1.50;;;;;;;28.32;38.48;96874.38;5015242;28;20128;-67
2022/07/31 11:31:35;;;;;;;4.90;1.85;;;;;;;28.13;40.59;96876.56;5021556;28;20037;-68